Time;durP1;ratioP1;P1;durP2;ratioP2;P2;SDS_P1;SDS_P2;PMS_P1;PMS_P2;Temp;Humidity;BMP_temperature;BMP_pressure;BME280_temperature;BME280_humidity;BME280_pressure;Samples;Min_cycle;Max_cycle;Signal;HPM_P1;HPM_P2
2022/12/17 13:15:26;;;;;;;59.50;33.10;;;;;;;-6.07;88.26;100170.15;423465;1291;146039;-73
2022/12/17 13:25:38;;;;;;;59.60;32.90;;;;;;;-6.22;88.42;100183.94;432995;1290;141997;-73
2022/12/17 13:35:54;;;;;;;43.50;26.00;;;;;;;-6.20;88.78;100194.89;432610;1293;143324;-73
2022/12/17 13:46:00;;;;;;;43.00;25.30;;;;;;;-6.32;88.91;100200.33;432144;1286;207065;-74
2022/12/17 13:56:06;;;;;;;42.20;26.50;;;;;;;-6.38;89.07;100205.70;432904;1294;152264;-73
2022/12/17 14:06:13;;;;;;;47.20;28.20;;;;;;;-6.48;89.33;100211.17;432403;1294;143947;-73
2022/12/17 14:16:21;;;;;;;51.90;28.90;;;;;;;-6.62;89.68;100229.85;424147;1293;143884;-70
2022/12/17 14:26:27;;;;;;;50.10;30.00;;;;;;;-6.66;90.04;100236.41;422614;1294;142641;-71
2022/12/17 14:36:33;;;;;;;43.60;25.90;;;;;;;-6.75;90.26;100259.60;419754;1287;143518;-70
2022/12/17 14:46:39;;;;;;;42.40;25.60;;;;;;;-7.03;90.25;100276.98;421571;1295;145257;-71
2022/12/17 14:56:46;;;;;;;36.60;23.60;;;;;;;-7.19;90.15;100299.48;433182;1293;188232;-72
2022/12/17 15:06:55;;;;;;;45.70;28.10;;;;;;;-7.24;90.46;100316.92;432538;1287;142810;-71
2022/12/17 15:17:01;;;;;;;36.80;23.90;;;;;;;-7.27;90.49;100319.39;433067;1294;143258;-72
2022/12/17 15:27:06;;;;;;;39.60;24.40;;;;;;;-7.24;90.61;100328.48;430022;1301;146021;-73
2022/12/17 15:37:12;;;;;;;37.50;23.00;;;;;;;-7.25;90.68;100339.87;433078;1294;142833;-72
2022/12/17 15:47:18;;;;;;;31.20;19.90;;;;;;;-7.25;90.75;100351.42;431200;1296;143668;-72
2022/12/17 15:57:23;;;;;;;38.60;24.00;;;;;;;-7.20;91.02;100358.02;432266;1291;161156;-73
2022/12/17 16:07:29;;;;;;;35.70;21.00;;;;;;;-7.18;91.05;100376.25;432920;1294;200524;-72
2022/12/17 16:17:35;;;;;;;30.40;21.40;;;;;;;-7.17;91.15;100388.02;434159;1291;142993;-72
2022/12/17 16:27:41;;;;;;;27.80;18.70;;;;;;;-7.07;91.54;100400.81;427973;1290;144887;-71
2022/12/17 16:37:47;;;;;;;34.20;19.70;;;;;;;-6.95;91.80;100412.64;420145;1291;143948;-71
2022/12/17 16:47:52;;;;;;;32.70;19.80;;;;;;;-6.86;91.96;100418.10;419931;1284;143848;-72
2022/12/17 16:57:58;;;;;;;32.40;21.50;;;;;;;-6.76;92.30;100424.42;419807;1292;141719;-73
2022/12/17 17:08:05;;;;;;;31.60;17.90;;;;;;;-6.67;92.48;100418.98;425934;1292;142780;-71
2022/12/17 17:18:11;;;;;;;30.60;19.40;;;;;;;-6.56;92.89;100418.17;431435;1290;143288;-73
2022/12/17 17:28:17;;;;;;;34.60;19.60;;;;;;;-6.40;93.16;100435.02;427762;1290;143285;-73
2022/12/17 17:38:22;;;;;;;38.20;23.10;;;;;;;-6.26;93.43;100432.36;420035;1291;142235;-72
2022/12/17 17:48:30;;;;;;;30.90;18.00;;;;;;;-6.16;93.94;100451.11;418981;1284;143258;-71
2022/12/17 17:58:36;;;;;;;36.40;22.20;;;;;;;-6.05;94.09;100460.52;422403;1278;143338;-72
2022/12/17 18:08:43;;;;;;;33.00;20.60;;;;;;;-5.95;94.23;100470.89;434523;1284;143676;-72
2022/12/17 18:18:49;;;;;;;34.10;21.60;;;;;;;-5.80;94.10;100486.84;435619;1289;143348;-72
2022/12/17 18:28:55;;;;;;;34.90;20.10;;;;;;;-5.67;94.35;100502.59;426967;1274;144162;-72
2022/12/17 18:39:03;;;;;;;32.60;19.90;;;;;;;-5.59;94.14;100516.70;421661;1274;186163;-72
2022/12/17 18:49:09;;;;;;;35.10;19.70;;;;;;;-5.54;94.22;100537.27;436185;1283;143379;-73
2022/12/17 18:59:17;;;;;;;34.70;20.10;;;;;;;-5.47;94.04;100552.23;436277;1282;141982;-72
2022/12/17 19:09:25;;;;;;;31.20;20.80;;;;;;;-5.41;93.93;100554.73;429838;1285;165268;-72
2022/12/17 19:19:30;;;;;;;34.10;21.00;;;;;;;-5.33;94.09;100565.26;422364;1281;142232;-72
2022/12/17 19:29:35;;;;;;;;;;;;;;;-5.30;93.96;100574.70;422437;1282;143497;-72
2022/12/17 19:39:40;;;;;;;30.30;18.20;;;;;;;-5.31;93.65;100580.85;422093;1283;129806;-73
2022/12/17 19:49:46;;;;;;;27.20;17.00;;;;;;;-5.30;93.59;100586.14;422559;1281;145482;-72
2022/12/17 19:59:50;;;;;;;;;;;;;;;-5.30;93.29;100602.04;422108;1279;143494;-71
2022/12/17 20:09:56;;;;;;;24.00;14.00;;;;;;;-5.30;93.04;100615.52;422432;1281;129249;-70
2022/12/17 20:20:01;;;;;;;23.40;15.20;;;;;;;-5.25;92.83;100625.31;422724;1281;143091;-70
2022/12/17 20:30:07;;;;;;;;;;;;;;;-5.20;92.89;100632.91;422762;1281;144517;-70
2022/12/17 20:40:13;;;;;;;21.20;14.40;;;;;;;-5.15;92.88;100651.96;435373;1282;129246;-70
2022/12/17 20:50:19;;;;;;;21.30;12.10;;;;;;;-5.09;92.67;100660.77;426107;1281;142811;-71
2022/12/17 21:00:25;;;;;;;22.00;13.50;;;;;;;-5.08;92.54;100681.63;425199;1282;143601;-70
2022/12/17 21:10:29;;;;;;;;;;;;;;;-5.06;92.49;100702.83;428914;1282;143132;-68
2022/12/17 21:20:34;;;;;;;21.10;14.50;;;;;;;-5.05;92.40;100716.52;436449;1283;130290;-69
2022/12/17 21:30:40;;;;;;;35.10;18.30;;;;;;;-5.00;92.49;100715.39;427330;1274;143577;-71
2022/12/17 21:40:46;;;;;;;35.00;19.40;;;;;;;-4.98;92.71;100722.77;422553;1281;143828;-68
2022/12/17 21:50:51;;;;;;;;;;;;;;;-4.96;92.96;100729.13;422421;1289;141971;-70
2022/12/17 22:00:57;;;;;;;28.00;16.70;;;;;;;-4.95;93.18;100740.27;435789;1281;128616;-69
2022/12/17 22:11:01;;;;;;;;;;;;;;;-4.96;93.40;100751.02;436329;1287;143005;-73
2022/12/17 22:21:07;;;;;;;28.80;17.30;;;;;;;-4.97;93.52;100758.83;436045;1280;130575;-70
2022/12/17 22:52:24;;;;;;;29.60;19.60;;;;;;;-5.12;93.80;100792.89;435880;1282;211343;-70
2022/12/17 23:02:30;;;;;;;28.90;18.30;;;;;;;-5.14;93.80;100805.98;436176;1288;142849;-71
2022/12/17 23:12:53;;;;;;;;;;;;;;;-5.15;94.10;100817.06;435441;1280;146340;-70
2022/12/17 23:23:00;;;;;;;36.30;20.20;;;;;;;-5.20;94.03;100824.48;436489;1283;129182;-71
2022/12/17 23:33:06;;;;;;;43.70;23.60;;;;;;;-5.35;93.94;100836.64;429518;1287;184798;-71
2022/12/17 23:43:10;;;;;;;;;;;;;;;-5.38;94.16;100853.28;436277;1290;142794;-69
2022/12/17 23:53:21;;;;;;;41.00;24.60;;;;;;;-5.43;94.13;100860.52;436427;1289;129010;-72
